Goodman, Wisconsin
Current Conditions -  °F | °C
As of 12:54 PM on Monday 20 Oct 2014 (Local Time) from KIMT Reporting Station
Light Rain Light Rain  
Wind Chill: 42°   Ceiling: 1600
Heat Index: 47°   Visibility: 3mi
Dew Point: 42°   Wind: 12mph
Humidity: 83%   Direction: 350°N
Pressure: 29.87"   Gusts: NA
Location:  45.63°N, 88.35°W
Report Text: KIMT 201754Z AUTO 35010KT 3SM -RA OVC016 08/06 A2987 RMK AO2 RAB47 SLP122 P0000 60000 T00830056 10094 20078 51006
Loading
Personal Weather Stations






























Interactive Weather Map
Tropical Storm Tracking
New forecast layout! Learn more

10-Day Weather Forecast

Advertisements
Track Severe Weather on mobile